Cashiers, NC

3:25 PM EST on January 19, 2017 (GMT -0500)
TheWrightPlace Hwy. 64 E | | Change Station

Elev 4094 ft 35.09 °N, 83.18 °W | Updated 8 seconds ago

Overcast
Overcast
54.7 °F
Feels Like 54.7 °F
N
2.3
Wind Variable Wind from SSE
Gusts 2.3 mph

Today
High -- | Low -- °F
--% Chance of Precip.
Yesterday
High -- | Low -- °F
Precip. -- in
Pressure 29.98 in
Visibility 10.0 miles
Clouds Mostly Cloudy 4400 ft
Mostly Cloudy 6000 ft
Overcast 8500 ft
Dew Point 38 °F
Humidity 54%
Rainfall 0.00 in
Snow Depth Not available.
7:38 AM 5:48 PM
Waning Gibbous, 51% visible
METAR K1A5 192000Z AUTO 00000KT 10SM BKN044 BKN060 OVC085 16/01 A2998 RMK AO2 T01600013
Pressure 29.98 in
Visibility 10.0 miles
Clouds Mostly Cloudy 4400 ft
Mostly Cloudy 6000 ft
Overcast 8500 ft
Dew Point 38 °F
Humidity 54%
Rainfall 0.00 in
Snow Depth Not available.
7:38 AM 5:48 PM
Waning Gibbous, 51% visible
METAR K1A5 192000Z AUTO 00000KT 10SM BKN044 BKN060 OVC085 16/01 A2998 RMK AO2 T01600013

Get Your Daily Forecast Email!

Thanks for signing up!

Be on the lookout for a verification email in your inbox.

You'll start receiving the daily forecast at 8 AM.

×

10-Day Weather Forecast

Almanac

Astronomy

Jan. 19, 2017 Rise Set
Actual Time
Civil Twilight
Nautical Twilight
Astronomical Twilight
Moon
Length of Visible Light
Length of Day
Tomorrow will be .
, % of the Moon is Illuminated

Today's Extremes

State Highs State Lows

Community

WunderPhotos

Upload Photos

1,962,540 photos uploaded!

WunderBlog® & News

Nearby

Air Quality

  Air Quality AQ Index Pollutant
Not available.

Snow Depth

Station Depth Elevation

Earthquake Activity

City Distance Mag. Time & Date
Minimum magnitude displayed is 2.5.

Coastal Water Temperatures

Place Temperature

Stations

Nearby Weather Stations

Station Location Temp. Windchill Dew Point Humidity Wind Precip. Elev Updated Type
                   

Watches & Warnings

There are currently no watches in effect.